Al Hariq, Saudi Arabia
Current Conditions -  °F | °C
As of 9:00 AM on Saturday 25 Oct 2014 (Local Time) from OEKJ Reporting Station
Clear Clear  
Wind Chill: 82°   Ceiling: Unl
Heat Index: 82°   Visibility: 6mi
Dew Point: 41°   Wind: 7mph
Humidity: 23%   Direction: 190°S
Pressure: 30.03"   Gusts: NA
Location:  23.62°N, 46.52°E
Report Text: OEKJ 250600Z 19006KT CAVOK 28/05 Q1017
Loading
Personal Weather Stations






























Interactive Weather Map
Tropical Storm Tracking
New forecast layout! Learn more

10-Day Weather Forecast

Advertisements
Track Severe Weather on mobile